Crow Valley Gunnery Range, Philippines

8:08 PM PHT on October 02, 2014 (GMT +0800)
Clark International | Change Station
CLOSE
Current Station
Airport
Location: Angeles / Pampanga,
Elevation: 509 ft
Nearby Weather Stations

Elev 509 ft 15.19 °N, 120.56 °E | Updated 8 minutes ago

Light Thunderstorms and Rain
Light Thunderstorm Rain
77 °F
Feels Like 77 °F
N
5
Wind Variable Wind from SW

Today
High -- | Low -- °F
--% Chance of Precip.
Yesterday
High -- | Low -- °F
Precip. -- in
5:48 AM 5:47 PM
First Quarter, 58% visible
Pressure 29.83 in
Visibility 5.6 miles
Clouds Few 2000 ft
Scattered Clouds 3600 ft
Overcast 10000 ft
Dew Point 77 °F
Humidity 100%
Rainfall 0.00 in
Snow Depth Not available.
UV 0 out of 12
Pollen Not available.
Air Quality Not available.
Flu Activity Not available.
METAR RPLC 011200Z 23004KT 9000 -TSRA FEW020CB SCT036 OVC100 25/25 Q1010 CB NW N W/ TS- W/ LGT RA OVR STN RMK A2985

More Conditions Fewer Conditions

Pressure 29.83 in
Visibility 5.6 miles
Clouds Few 2000 ft
Scattered Clouds 3600 ft
Overcast 10000 ft
Dew Point 77 °F
Humidity 100%
Rainfall 0.00 in
Snow Depth Not available.
UV 0 out of 12
Pollen Not available.
Air Quality Not available.
Flu Activity Not available.
METAR RPLC 011200Z 23004KT 9000 -TSRA FEW020CB SCT036 OVC100 25/25 Q1010 CB NW N W/ TS- W/ LGT RA OVR STN RMK A2985

More Conditions Fewer Conditions

10-Day Weather Forecast

Almanac

Astronomy

Oct. 02, 2014 Rise Set
Actual Time 5:48 AM PHT 5:47 PM PHT
Civil Twilight 5:26 AM PHT 6:08 PM PHT
Nautical Twilight 5:02 AM PHT 6:33 PM PHT
Astronomical Twilight 4:37 AM PHT 6:58 PM PHT
Moon 12:33 PM PHT No Moon Set
Length of Visible Light 12h 41m
Length of Day
11h 59m
Tomorrow will be 0m 50s shorter.
First Quarter, 58% of the Moon is Illuminated
Today
First Quarter
Oct 8
Full
Oct 15
Last Quarter
Oct 23
New
Oct 30
First Quarter

Yesterday's Extremes

Country Highs Country Lows

Community

WunderPhotos

Upload Photos

1,758,223 photos uploaded!

WunderBlogs® & News

Nearby

Snow Depth

Not available.

Earthquake Activity

City Distance Mag. Time & Date
No recent earthquake activity has been reported nearby.
Minimum magnitude displayed is 2.5.

Coastal Water Temperatures

Place Temperature
No Stations Reporting

Nearby Weather Stations